Max Cavalier — 9HA4128 — position and weather

sailwx.info

Track history (hours):
 
Tides and Currents Weather Stations Pressure Air Temp Water Temp Dewpoint Dewpoint Depression Visibility Wind Speed Wind Dir Waves Ship Positions

Max Cavalier

Last reported at 2018-Jul-16 09:01 UTC. Time now 2018-Jul-18 05:04 UTC.
Position N 37°29' E 023°59'.

Length 145 m; draft 7.8 m.

Type: Ship. MMSI: 249152000.

Date/timePositionNaut miles runAvg speedWind from/ knotsBaromVisibWave heightAir tempDewpointWater temp
2018-Jul-16 09:01N 37°29' E 023°59'010.3
2018-Jul-16 09:00N 37°29' E 023°59'6 9.8
2018-Jul-16 08:25N 37°33' E 023°53'4 9.7
2018-Jul-16 08:00N 37°36' E 023°49'5 9.7
2018-Jul-16 07:30N 37°38' E 023°44'5 9.7
2018-Jul-16 07:00N 37°42' E 023°40'5 9.8
2018-Jul-16 06:30N 37°47' E 023°38'5 9.5
2018-Jul-16 06:00N 37°51' E 023°37'5 9.4
2018-Jul-16 05:30N 37°56' E 023°36'2 3.0
2018-Jul-16 04:56N 37°57' E 023°35'0 0.0
2018-Jul-16 04:26N 37°57' E 023°35'0 0.0
2018-Jul-16 03:56N 37°57' E 023°35'0 0.0
2018-Jul-16 03:26N 37°57' E 023°35'0 0.0
2018-Jul-16 02:56N 37°57' E 023°35'0 0.0
2018-Jul-16 02:26N 37°57' E 023°35'0 0.0
2018-Jul-16 01:57N 37°57' E 023°35'0 0.0
2018-Jul-16 01:26N 37°57' E 023°35'0 0.0
2018-Jul-16 00:56N 37°57' E 023°35'0 0.0
2018-Jul-16 00:27N 37°57' E 023°35'0 0.0
2018-Jul-15 23:57N 37°57' E 023°35'0 0.0
2018-Jul-15 23:28N 37°57' E 023°35'0 0.0
2018-Jul-15 22:58N 37°57' E 023°35'0 0.0
2018-Jul-15 22:26N 37°57' E 023°35'0 0.0
2018-Jul-15 21:58N 37°57' E 023°35'0 0.0
2018-Jul-15 21:28N 37°57' E 023°35'0 0.0
2018-Jul-15 20:58N 37°57' E 023°35'0 0.0
2018-Jul-15 20:28N 37°57' E 023°35'0 0.0
2018-Jul-15 19:56N 37°57' E 023°35'0 0.0
2018-Jul-15 19:28N 37°57' E 023°35'0 0.0
2018-Jul-15 18:58N 37°57' E 023°35'0 0.0
2018-Jul-15 18:28N 37°57' E 023°35'0 0.0
2018-Jul-15 17:58N 37°57' E 023°35'0 0.0
2018-Jul-15 17:28N 37°57' E 023°35'0 0.0
2018-Jul-15 16:59N 37°57' E 023°35'0 0.0
2018-Jul-15 16:28N 37°57' E 023°35'0 0.0
2018-Jul-15 15:59N 37°57' E 023°35'0 0.0
2018-Jul-15 15:29N 37°57' E 023°35'0 0.0
2018-Jul-15 14:58N 37°57' E 023°35'0 0.0
2018-Jul-15 14:29N 37°57' E 023°35'0 0.0
2018-Jul-15 13:59N 37°57' E 023°35'0 0.0
2018-Jul-15 13:29N 37°57' E 023°35'0 0.0
2018-Jul-15 12:59N 37°57' E 023°35'0 0.0
2018-Jul-15 12:28N 37°57' E 023°35'0 0.0
2018-Jul-15 12:00N 37°57' E 023°35'0 0.0
2018-Jul-15 11:30N 37°57' E 023°35'0 0.0
2018-Jul-15 11:00N 37°57' E 023°35'0 0.0
2018-Jul-15 10:30N 37°57' E 023°35'0 0.0
2018-Jul-15 10:00N 37°57' E 023°35'0 0.0
2018-Jul-15 09:30N 37°57' E 023°35'0 0.0
2018-Jul-15 09:00N 37°57' E 023°35'0 0.0
2018-Jul-15 08:30N 37°57' E 023°35'0 0.0
2018-Jul-15 08:00N 37°57' E 023°35'0 0.7
2018-Jul-15 07:31N 37°57' E 023°35'2 4.4
2018-Jul-15 07:00N 37°55' E 023°34'0 0.4
2018-Jul-15 06:31N 37°55' E 023°35'0 0.4
2018-Jul-15 06:01N 37°55' E 023°35'0 0.1
2018-Jul-15 05:30N 37°55' E 023°35'2 4.8
2018-Jul-15 05:00N 37°53' E 023°33'1 0.9
2018-Jul-15 04:28N 37°53' E 023°32'0 0.1
2018-Jul-15 03:58N 37°53' E 023°32'0 0.0
2018-Jul-15 03:28N 37°53' E 023°32'0 0.0
2018-Jul-15 02:58N 37°53' E 023°32'0 0.0
2018-Jul-15 02:28N 37°53' E 023°32'0 0.0
2018-Jul-15 01:58N 37°53' E 023°32'0 0.0
2018-Jul-15 01:28N 37°53' E 023°32'0 0.0
2018-Jul-15 00:58N 37°53' E 023°32'0 0.0
2018-Jul-15 00:28N 37°53' E 023°32'0 0.0
2018-Jul-14 23:56N 37°53' E 023°32'0 0.1
2018-Jul-14 23:29N 37°53' E 023°32'0 0.1
2018-Jul-14 22:59N 37°53' E 023°32'0 0.0
2018-Jul-14 22:29N 37°53' E 023°32'0 0.0
2018-Jul-14 21:59N 37°53' E 023°32'0 0.0
2018-Jul-14 21:29N 37°53' E 023°32'0 0.0
2018-Jul-14 20:59N 37°53' E 023°32'0 0.0
2018-Jul-14 20:29N 37°53' E 023°32'0 0.0
2018-Jul-14 19:59N 37°53' E 023°32'0 0.0
2018-Jul-14 19:29N 37°53' E 023°32'0 0.0
2018-Jul-14 18:59N 37°53' E 023°32'0 0.0
2018-Jul-14 18:29N 37°53' E 023°32'0 0.0
2018-Jul-14 17:59N 37°53' E 023°32'0 0.1
2018-Jul-14 17:29N 37°53' E 023°32'0 0.1
2018-Jul-14 16:59N 37°53' E 023°32'0 0.1
2018-Jul-14 16:29N 37°53' E 023°32'0 0.0
2018-Jul-14 15:59N 37°53' E 023°32'0 0.0
2018-Jul-14 15:29N 37°53' E 023°32'0 0.1
2018-Jul-14 14:59N 37°53' E 023°32'0 0.1
2018-Jul-14 14:29N 37°53' E 023°32'0 0.1
2018-Jul-14 13:29N 37°53' E 023°32'0 0.0
2018-Jul-14 12:59N 37°53' E 023°32'0 0.1
2018-Jul-14 12:29N 37°53' E 023°32'0 0.2
2018-Jul-14 11:59N 37°53' E 023°32'0 0.2
2018-Jul-14 11:29N 37°53' E 023°32'0 0.1
2018-Jul-14 10:59N 37°53' E 023°32'0 0.2
2018-Jul-14 10:29N 37°53' E 023°32'0 0.0
2018-Jul-14 09:59N 37°53' E 023°32'0 0.1
2018-Jul-14 09:29N 37°53' E 023°32'0 0.1
2018-Jul-14 08:59N 37°53' E 023°32'0 0.1
2018-Jul-14 08:29N 37°53' E 023°32'0 0.0
2018-Jul-14 07:59N 37°53' E 023°32'0 0.0
2018-Jul-14 07:29N 37°53' E 023°32'0 0.0
2018-Jul-14 06:59N 37°53' E 023°32'0 0.0
2018-Jul-14 06:29N 37°53' E 023°32'0 0.0
2018-Jul-14 05:59N 37°53' E 023°32'0 0.0
2018-Jul-14 05:29N 37°53' E 023°32'0 0.0
2018-Jul-14 04:59N 37°53' E 023°32'0 0.0
2018-Jul-14 04:29N 37°53' E 023°32'0 0.0
2018-Jul-14 03:59N 37°53' E 023°32'0 0.0
2018-Jul-14 03:29N 37°53' E 023°32'0 0.1
2018-Jul-14 02:56N 37°53' E 023°32'0 0.0
2018-Jul-14 02:29N 37°53' E 023°32'0 0.1
2018-Jul-14 01:59N 37°53' E 023°32'0 0.0
2018-Jul-14 01:29N 37°53' E 023°32'0 0.1
2018-Jul-14 00:59N 37°53' E 023°32'0 0.0
2018-Jul-14 00:29N 37°53' E 023°32'0 0.1
2018-Jul-13 23:59N 37°53' E 023°32'0 0.1
2018-Jul-13 23:29N 37°53' E 023°32'0 0.1
2018-Jul-13 22:59N 37°53' E 023°32'0 0.1
2018-Jul-13 22:29N 37°53' E 023°32'0 0.1
2018-Jul-13 21:59N 37°53' E 023°32'0 0.1
2018-Jul-13 21:29N 37°53' E 023°32'0 0.0
2018-Jul-13 20:59N 37°53' E 023°32'0 0.1
2018-Jul-13 20:29N 37°53' E 023°32'0 0.0
2018-Jul-13 19:59N 37°53' E 023°32'0 0.0
2018-Jul-13 19:29N 37°53' E 023°32'0 0.0
2018-Jul-13 18:59N 37°53' E 023°32'0 0.2
2018-Jul-13 18:29N 37°53' E 023°32'1 1.7
2018-Jul-13 18:01N 37°53' E 023°33'4 8.1
2018-Jul-13 17:31N 37°51' E 023°38'5 9.5
2018-Jul-13 17:00N 37°47' E 023°41'5 9.9
2018-Jul-13 16:30N 37°42' E 023°44'5 9.4
2018-Jul-13 16:01N 37°38' E 023°45'510.0
2018-Jul-13 15:31N 37°33' E 023°45'510.2
2018-Jul-13 15:00N 37°28' E 023°45'1010.2
2018-Jul-13 13:59N 37°17' E 023°43'439 9.4
2018-Jul-11 15:15N 36°39' E 014°35'310.9
2018-Jul-11 15:00N 36°39' E 014°32'611.0
2018-Jul-11 14:30N 36°40' E 014°25'510.5
2018-Jul-11 14:00N 36°40' E 014°19'610.5
2018-Jul-11 13:28N 36°42' E 014°12'510.6
2018-Jul-11 13:00N 36°43' E 014°06'510.7
2018-Jul-11 12:30N 36°44' E 013°59'510.5
2018-Jul-11 12:00N 36°45' E 013°53'510.2
2018-Jul-11 11:31N 36°46' E 013°47'5 9.8
2018-Jul-11 11:00N 36°47' E 013°41'7 9.8
2018-Jul-11 10:20N 36°49' E 013°33'310.1
2018-Jul-11 10:00N 36°50' E 013°29'35110.6
2018-Jul-10 00:44N 37°13' E 006°10'210.6
2018-Jul-10 00:30N 37°13' E 006°07'510.5
2018-Jul-10 00:00N 37°12' E 006°01'510.6
2018-Jul-09 23:30N 37°12' E 005°54'510.4
2018-Jul-09 23:00N 37°11' E 005°48'5 9.8
2018-Jul-09 22:30N 37°10' E 005°41'4610.1
2018-Jul-09 17:53N 37°06' E 004°43'510.1
2018-Jul-09 17:25N 37°05' E 004°38'410.2
2018-Jul-09 16:59N 37°05' E 004°32'1110.2
2018-Jul-09 15:56N 37°03' E 004°19'1210.2
2018-Jul-09 14:47N 37°02' E 004°04'310.3
2018-Jul-09 14:30N 37°02' E 004°00'610.3
2018-Jul-09 13:58N 37°02' E 003°54'510.1
2018-Jul-09 13:30N 37°00' E 003°48'510.2
2018-Jul-09 13:00N 36°59' E 003°42'510.2
2018-Jul-09 12:30N 36°58' E 003°36'510.1
2018-Jul-09 11:59N 36°57' E 003°29'23 0.7
2018-Jul-08 01:44N 36°46' E 003°04'0 0.0
2018-Jul-08 01:26N 36°46' E 003°04'0 0.0
2018-Jul-08 00:56N 36°46' E 003°04'0 0.0
2018-Jul-07 23:44N 36°46' E 003°04'0 0.0
2018-Jul-07 23:14N 36°46' E 003°04'0 0.0
2018-Jul-07 22:19N 36°46' E 003°04'0 0.0
2018-Jul-07 18:38N 36°46' E 003°04'  
Track history (hours):
 
Tides and Currents Weather Stations Pressure Air Temp Water Temp Dewpoint Dewpoint Depression Visibility Wind Speed Wind Dir Waves Ship Positions

Max Cavalier

Last reported at 2018-Jul-16 09:01 UTC. Time now 2018-Jul-18 05:04 UTC.
Position N 37°29' E 023°59'.

Length 145 m; draft 7.8 m.

Type: Ship. MMSI: 249152000.

Date/timePositionNaut miles runAvg speedWind from/ knotsBaromVisibWave heightAir tempDewpointWater temp
2018-Jul-16 09:01N 37°29' E 023°59'010.3
2018-Jul-16 09:00N 37°29' E 023°59'6 9.8
2018-Jul-16 08:25N 37°33' E 023°53'4 9.7
2018-Jul-16 08:00N 37°36' E 023°49'5 9.7
2018-Jul-16 07:30N 37°38' E 023°44'5 9.7
2018-Jul-16 07:00N 37°42' E 023°40'5 9.8
2018-Jul-16 06:30N 37°47' E 023°38'5 9.5
2018-Jul-16 06:00N 37°51' E 023°37'5 9.4
2018-Jul-16 05:30N 37°56' E 023°36'2 3.0
2018-Jul-16 04:56N 37°57' E 023°35'0 0.0
2018-Jul-16 04:26N 37°57' E 023°35'0 0.0
2018-Jul-16 03:56N 37°57' E 023°35'0 0.0
2018-Jul-16 03:26N 37°57' E 023°35'0 0.0
2018-Jul-16 02:56N 37°57' E 023°35'0 0.0
2018-Jul-16 02:26N 37°57' E 023°35'0 0.0
2018-Jul-16 01:57N 37°57' E 023°35'0 0.0
2018-Jul-16 01:26N 37°57' E 023°35'0 0.0
2018-Jul-16 00:56N 37°57' E 023°35'0 0.0
2018-Jul-16 00:27N 37°57' E 023°35'0 0.0
2018-Jul-15 23:57N 37°57' E 023°35'0 0.0
2018-Jul-15 23:28N 37°57' E 023°35'0 0.0
2018-Jul-15 22:58N 37°57' E 023°35'0 0.0
2018-Jul-15 22:26N 37°57' E 023°35'0 0.0
2018-Jul-15 21:58N 37°57' E 023°35'0 0.0
2018-Jul-15 21:28N 37°57' E 023°35'0 0.0
2018-Jul-15 20:58N 37°57' E 023°35'0 0.0
2018-Jul-15 20:28N 37°57' E 023°35'0 0.0
2018-Jul-15 19:56N 37°57' E 023°35'0 0.0
2018-Jul-15 19:28N 37°57' E 023°35'0 0.0
2018-Jul-15 18:58N 37°57' E 023°35'0 0.0
2018-Jul-15 18:28N 37°57' E 023°35'0 0.0
2018-Jul-15 17:58N 37°57' E 023°35'0 0.0
2018-Jul-15 17:28N 37°57' E 023°35'0 0.0
2018-Jul-15 16:59N 37°57' E 023°35'0 0.0
2018-Jul-15 16:28N 37°57' E 023°35'0 0.0
2018-Jul-15 15:59N 37°57' E 023°35'0 0.0
2018-Jul-15 15:29N 37°57' E 023°35'0 0.0
2018-Jul-15 14:58N 37°57' E 023°35'0 0.0
2018-Jul-15 14:29N 37°57' E 023°35'0 0.0
2018-Jul-15 13:59N 37°57' E 023°35'0 0.0
2018-Jul-15 13:29N 37°57' E 023°35'0 0.0
2018-Jul-15 12:59N 37°57' E 023°35'0 0.0
2018-Jul-15 12:28N 37°57' E 023°35'0 0.0
2018-Jul-15 12:00N 37°57' E 023°35'0 0.0
2018-Jul-15 11:30N 37°57' E 023°35'0 0.0
2018-Jul-15 11:00N 37°57' E 023°35'0 0.0
2018-Jul-15 10:30N 37°57' E 023°35'0 0.0
2018-Jul-15 10:00N 37°57' E 023°35'0 0.0
2018-Jul-15 09:30N 37°57' E 023°35'0 0.0
2018-Jul-15 09:00N 37°57' E 023°35'0 0.0
2018-Jul-15 08:30N 37°57' E 023°35'0 0.0
2018-Jul-15 08:00N 37°57' E 023°35'0 0.7
2018-Jul-15 07:31N 37°57' E 023°35'2 4.4
2018-Jul-15 07:00N 37°55' E 023°34'0 0.4
2018-Jul-15 06:31N 37°55' E 023°35'0 0.4
2018-Jul-15 06:01N 37°55' E 023°35'0 0.1
2018-Jul-15 05:30N 37°55' E 023°35'2 4.8
2018-Jul-15 05:00N 37°53' E 023°33'1 0.9
2018-Jul-15 04:28N 37°53' E 023°32'0 0.1
2018-Jul-15 03:58N 37°53' E 023°32'0 0.0
2018-Jul-15 03:28N 37°53' E 023°32'0 0.0
2018-Jul-15 02:58N 37°53' E 023°32'0 0.0
2018-Jul-15 02:28N 37°53' E 023°32'0 0.0
2018-Jul-15 01:58N 37°53' E 023°32'0 0.0
2018-Jul-15 01:28N 37°53' E 023°32'0 0.0
2018-Jul-15 00:58N 37°53' E 023°32'0 0.0
2018-Jul-15 00:28N 37°53' E 023°32'0 0.0
2018-Jul-14 23:56N 37°53' E 023°32'0 0.1
2018-Jul-14 23:29N 37°53' E 023°32'0 0.1
2018-Jul-14 22:59N 37°53' E 023°32'0 0.0
2018-Jul-14 22:29N 37°53' E 023°32'0 0.0
2018-Jul-14 21:59N 37°53' E 023°32'0 0.0
2018-Jul-14 21:29N 37°53' E 023°32'0 0.0
2018-Jul-14 20:59N 37°53' E 023°32'0 0.0
2018-Jul-14 20:29N 37°53' E 023°32'0 0.0
2018-Jul-14 19:59N 37°53' E 023°32'0 0.0
2018-Jul-14 19:29N 37°53' E 023°32'0 0.0
2018-Jul-14 18:59N 37°53' E 023°32'0 0.0
2018-Jul-14 18:29N 37°53' E 023°32'0 0.0
2018-Jul-14 17:59N 37°53' E 023°32'0 0.1
2018-Jul-14 17:29N 37°53' E 023°32'0 0.1
2018-Jul-14 16:59N 37°53' E 023°32'0 0.1
2018-Jul-14 16:29N 37°53' E 023°32'0 0.0
2018-Jul-14 15:59N 37°53' E 023°32'0 0.0
2018-Jul-14 15:29N 37°53' E 023°32'0 0.1
2018-Jul-14 14:59N 37°53' E 023°32'0 0.1
2018-Jul-14 14:29N 37°53' E 023°32'0 0.1
2018-Jul-14 13:29N 37°53' E 023°32'0 0.0
2018-Jul-14 12:59N 37°53' E 023°32'0 0.1
2018-Jul-14 12:29N 37°53' E 023°32'0 0.2
2018-Jul-14 11:59N 37°53' E 023°32'0 0.2
2018-Jul-14 11:29N 37°53' E 023°32'0 0.1
2018-Jul-14 10:59N 37°53' E 023°32'0 0.2
2018-Jul-14 10:29N 37°53' E 023°32'0 0.0
2018-Jul-14 09:59N 37°53' E 023°32'0 0.1
2018-Jul-14 09:29N 37°53' E 023°32'0 0.1
2018-Jul-14 08:59N 37°53' E 023°32'0 0.1
2018-Jul-14 08:29N 37°53' E 023°32'0 0.0
2018-Jul-14 07:59N 37°53' E 023°32'0 0.0
2018-Jul-14 07:29N 37°53' E 023°32'0 0.0
2018-Jul-14 06:59N 37°53' E 023°32'0 0.0
2018-Jul-14 06:29N 37°53' E 023°32'0 0.0
2018-Jul-14 05:59N 37°53' E 023°32'0 0.0
2018-Jul-14 05:29N 37°53' E 023°32'0 0.0
2018-Jul-14 04:59N 37°53' E 023°32'0 0.0
2018-Jul-14 04:29N 37°53' E 023°32'0 0.0
2018-Jul-14 03:59N 37°53' E 023°32'0 0.0
2018-Jul-14 03:29N 37°53' E 023°32'0 0.1
2018-Jul-14 02:56N 37°53' E 023°32'0 0.0
2018-Jul-14 02:29N 37°53' E 023°32'0 0.1
2018-Jul-14 01:59N 37°53' E 023°32'0 0.0
2018-Jul-14 01:29N 37°53' E 023°32'0 0.1
2018-Jul-14 00:59N 37°53' E 023°32'0 0.0
2018-Jul-14 00:29N 37°53' E 023°32'0 0.1
2018-Jul-13 23:59N 37°53' E 023°32'0 0.1
2018-Jul-13 23:29N 37°53' E 023°32'0 0.1
2018-Jul-13 22:59N 37°53' E 023°32'0 0.1
2018-Jul-13 22:29N 37°53' E 023°32'0 0.1
2018-Jul-13 21:59N 37°53' E 023°32'0 0.1
2018-Jul-13 21:29N 37°53' E 023°32'0 0.0
2018-Jul-13 20:59N 37°53' E 023°32'0 0.1
2018-Jul-13 20:29N 37°53' E 023°32'0 0.0
2018-Jul-13 19:59N 37°53' E 023°32'0 0.0
2018-Jul-13 19:29N 37°53' E 023°32'0 0.0
2018-Jul-13 18:59N 37°53' E 023°32'0 0.2
2018-Jul-13 18:29N 37°53' E 023°32'1 1.7
2018-Jul-13 18:01N 37°53' E 023°33'4 8.1
2018-Jul-13 17:31N 37°51' E 023°38'5 9.5
2018-Jul-13 17:00N 37°47' E 023°41'5 9.9
2018-Jul-13 16:30N 37°42' E 023°44'5 9.4
2018-Jul-13 16:01N 37°38' E 023°45'510.0
2018-Jul-13 15:31N 37°33' E 023°45'510.2
2018-Jul-13 15:00N 37°28' E 023°45'1010.2
2018-Jul-13 13:59N 37°17' E 023°43'439 9.4
2018-Jul-11 15:15N 36°39' E 014°35'310.9
2018-Jul-11 15:00N 36°39' E 014°32'611.0
2018-Jul-11 14:30N 36°40' E 014°25'510.5
2018-Jul-11 14:00N 36°40' E 014°19'610.5
2018-Jul-11 13:28N 36°42' E 014°12'510.6
2018-Jul-11 13:00N 36°43' E 014°06'510.7
2018-Jul-11 12:30N 36°44' E 013°59'510.5
2018-Jul-11 12:00N 36°45' E 013°53'510.2
2018-Jul-11 11:31N 36°46' E 013°47'5 9.8
2018-Jul-11 11:00N 36°47' E 013°41'7 9.8
2018-Jul-11 10:20N 36°49' E 013°33'310.1
2018-Jul-11 10:00N 36°50' E 013°29'35110.6
2018-Jul-10 00:44N 37°13' E 006°10'210.6
2018-Jul-10 00:30N 37°13' E 006°07'510.5
2018-Jul-10 00:00N 37°12' E 006°01'510.6
2018-Jul-09 23:30N 37°12' E 005°54'510.4
2018-Jul-09 23:00N 37°11' E 005°48'5 9.8
2018-Jul-09 22:30N 37°10' E 005°41'4610.1
2018-Jul-09 17:53N 37°06' E 004°43'510.1
2018-Jul-09 17:25N 37°05' E 004°38'410.2
2018-Jul-09 16:59N 37°05' E 004°32'1110.2
2018-Jul-09 15:56N 37°03' E 004°19'1210.2
2018-Jul-09 14:47N 37°02' E 004°04'310.3
2018-Jul-09 14:30N 37°02' E 004°00'610.3
2018-Jul-09 13:58N 37°02' E 003°54'510.1
2018-Jul-09 13:30N 37°00' E 003°48'510.2
2018-Jul-09 13:00N 36°59' E 003°42'510.2
2018-Jul-09 12:30N 36°58' E 003°36'510.1
2018-Jul-09 11:59N 36°57' E 003°29'23 0.7
2018-Jul-08 01:44N 36°46' E 003°04'0 0.0
2018-Jul-08 01:26N 36°46' E 003°04'0 0.0
2018-Jul-08 00:56N 36°46' E 003°04'0 0.0
2018-Jul-07 23:44N 36°46' E 003°04'0 0.0
2018-Jul-07 23:14N 36°46' E 003°04'0 0.0
2018-Jul-07 22:19N 36°46' E 003°04'0 0.0
2018-Jul-07 18:38N 36°46' E 003°04'  

Dump ship's entire track history